Time;durP1;ratioP1;P1;durP2;ratioP2;P2;SDS_P1;SDS_P2;PMS_P1;PMS_P2;Temp;Humidity;BMP_temperature;BMP_pressure;BME280_temperature;BME280_humidity;BME280_pressure;Samples;Min_cycle;Max_cycle;Signal;HPM_P1;HPM_P2
2023/05/22 00:00:35;;;;;;;6.18;3.50;;;21.10;99.90;;;;;;5000619;28;20220;-69
2023/05/22 00:03:02;;;;;;;5.50;3.88;;;21.00;99.90;;;;;;5004397;28;20190;-71
2023/05/22 00:05:29;;;;;;;5.50;3.58;;;21.00;99.90;;;;;;5007824;28;20362;-71
2023/05/22 00:07:55;;;;;;;7.38;3.90;;;21.00;99.90;;;;;;5008105;28;20208;-71
2023/05/22 00:10:20;;;;;;;6.95;3.90;;;21.00;99.90;;;;;;5006097;28;20213;-71
2023/05/22 00:12:46;;;;;;;6.35;3.85;;;20.90;99.90;;;;;;4987614;28;20224;-71
2023/05/22 00:15:12;;;;;;;7.82;3.83;;;20.90;99.90;;;;;;5003412;28;20264;-71
2023/05/22 00:17:37;;;;;;;4.63;3.08;;;20.90;99.90;;;;;;4985454;28;20182;-70
2023/05/22 00:20:06;;;;;;;5.18;3.22;;;20.90;99.90;;;;;;5005556;28;20223;-71
2023/05/22 00:22:35;;;;;;;4.53;3.47;;;20.80;99.90;;;;;;5004216;28;20267;-71
2023/05/22 00:25:05;;;;;;;6.53;3.40;;;20.80;99.90;;;;;;5004925;28;20209;-71
2023/05/22 00:27:31;;;;;;;4.78;3.78;;;20.80;99.90;;;;;;5007619;28;20622;-70
2023/05/22 00:29:57;;;;;;;11.55;3.80;;;20.70;99.90;;;;;;5011498;28;20201;-71
2023/05/22 00:32:24;;;;;;;5.38;3.63;;;20.60;99.90;;;;;;5007657;28;20217;-71
2023/05/22 00:34:49;;;;;;;4.82;3.53;;;20.70;99.90;;;;;;5005821;28;20263;-71
2023/05/22 00:37:15;;;;;;;6.63;3.50;;;20.60;99.90;;;;;;5007928;28;20596;-71
2023/05/22 00:39:41;;;;;;;8.13;4.05;;;20.60;99.90;;;;;;5009285;28;20240;-71
2023/05/22 00:42:06;;;;;;;5.20;3.67;;;20.60;99.90;;;;;;5002410;28;20181;-70
2023/05/22 00:44:32;;;;;;;6.05;3.85;;;20.60;99.90;;;;;;5007067;28;20641;-71
2023/05/22 00:46:57;;;;;;;5.57;3.60;;;20.60;99.90;;;;;;5003951;28;20734;-71
2023/05/22 00:49:23;;;;;;;6.03;3.33;;;20.60;99.90;;;;;;5002428;28;20214;-71
2023/05/22 00:51:49;;;;;;;6.00;3.40;;;20.60;99.90;;;;;;4986300;28;20584;-71
2023/05/22 00:54:16;;;;;;;6.43;3.17;;;20.50;99.90;;;;;;5000989;28;20637;-72
2023/05/22 00:56:42;;;;;;;5.90;3.63;;;20.50;99.90;;;;;;5009538;28;20181;-71
2023/05/22 00:59:09;;;;;;;5.35;3.60;;;20.50;99.90;;;;;;5011918;28;20205;-71
2023/05/22 01:01:40;;;;;;;3.92;3.25;;;20.40;99.90;;;;;;4995237;28;20205;-69
2023/05/22 01:04:10;;;;;;;3.20;2.80;;;20.40;99.90;;;;;;5010385;28;20734;-72
2023/05/22 01:06:36;;;;;;;5.22;3.92;;;20.30;99.90;;;;;;5005420;28;20217;-71
2023/05/22 01:09:03;;;;;;;5.82;3.53;;;20.40;99.90;;;;;;5012663;28;20541;-71
2023/05/22 01:12:00;;;;;;;5.35;4.10;;;20.40;99.90;;;;;;4990702;28;20213;-71
2023/05/22 01:14:35;;;;;;;6.70;3.58;;;20.30;99.90;;;;;;4991579;28;20233;-71
2023/05/22 01:17:12;;;;;;;5.97;3.47;;;20.30;99.90;;;;;;5005259;28;20288;-71
2023/05/22 01:20:05;;;;;;;4.97;3.53;;;20.30;99.90;;;;;;5004460;28;20212;-71
2023/05/22 01:23:02;;;;;;;4.05;3.45;;;20.20;99.90;;;;;;4989329;28;20212;-72
2023/05/22 01:25:33;;;;;;;7.28;3.45;;;20.20;99.90;;;;;;5004748;28;20221;-71
2023/05/22 01:28:18;;;;;;;4.38;3.67;;;20.20;99.90;;;;;;5003836;28;20219;-71
2023/05/22 01:30:46;;;;;;;6.28;3.50;;;20.10;99.90;;;;;;5005204;28;20205;-71
2023/05/22 01:33:14;;;;;;;6.82;3.47;;;20.10;99.90;;;;;;5003891;28;20664;-70
2023/05/22 01:35:43;;;;;;;5.30;3.25;;;20.10;99.90;;;;;;5007901;28;20323;-71
2023/05/22 01:38:10;;;;;;;6.03;3.63;;;20.10;99.90;;;;;;5007524;28;20254;-71
2023/05/22 01:40:36;;;;;;;3.85;3.55;;;20.00;99.90;;;;;;5003214;28;20212;-71
2023/05/22 01:43:02;;;;;;;6.22;3.88;;;20.00;99.90;;;;;;5006236;28;20225;-71
2023/05/22 01:45:30;;;;;;;4.68;3.42;;;20.00;99.90;;;;;;5004643;28;20216;-71
2023/05/22 01:47:56;;;;;;;3.75;3.40;;;20.00;99.90;;;;;;4997693;28;20272;-71
2023/05/22 01:50:22;;;;;;;5.07;3.50;;;19.90;99.90;;;;;;4989355;28;20209;-71
2023/05/22 01:53:07;;;;;;;4.80;3.30;;;19.90;99.90;;;;;;5009621;28;20201;-72
2023/05/22 01:55:54;;;;;;;6.28;3.40;;;19.90;99.90;;;;;;5000691;28;20213;-71
2023/05/22 01:58:20;;;;;;;6.13;3.60;;;19.90;99.90;;;;;;5006073;28;20221;-71
2023/05/22 02:00:46;;;;;;;5.35;3.58;;;19.90;99.90;;;;;;5004829;28;20200;-71
2023/05/22 02:03:17;;;;;;;7.13;3.30;;;19.90;99.90;;;;;;4990499;28;20200;-71
2023/05/22 02:05:46;;;;;;;5.70;3.85;;;19.90;99.90;;;;;;5005411;28;20239;-71
2023/05/22 02:08:13;;;;;;;4.97;3.28;;;19.90;99.90;;;;;;5001087;28;20210;-72
2023/05/22 02:10:41;;;;;;;4.50;3.33;;;19.80;99.90;;;;;;5004218;28;20224;-71
2023/05/22 02:13:07;;;;;;;7.80;4.13;;;19.80;99.90;;;;;;4999752;28;20648;-71
2023/05/22 02:15:33;;;;;;;5.95;3.45;;;19.60;99.90;;;;;;4992286;28;20279;-71
2023/05/22 02:18:00;;;;;;;5.60;3.28;;;19.60;99.90;;;;;;5000785;28;20645;-71
2023/05/22 02:20:26;;;;;;;5.13;3.28;;;19.60;99.90;;;;;;5007101;28;20205;-71
2023/05/22 02:22:51;;;;;;;5.32;3.50;;;19.60;99.90;;;;;;5001243;28;20275;-71
2023/05/22 02:25:17;;;;;;;5.13;3.50;;;19.60;99.90;;;;;;4987897;28;20216;-70
2023/05/22 02:27:44;;;;;;;4.68;3.33;;;19.60;99.90;;;;;;5007549;28;20294;-71
2023/05/22 02:30:14;;;;;;;5.28;3.38;;;19.50;99.90;;;;;;5008872;28;20177;-71
2023/05/22 02:32:40;;;;;;;5.10;3.58;;;19.50;99.90;;;;;;5006549;28;20204;-70
2023/05/22 02:35:06;;;;;;;4.63;3.38;;;19.50;99.90;;;;;;5004896;28;20224;-70
2023/05/22 02:37:32;;;;;;;6.85;3.15;;;19.50;99.90;;;;;;5004301;28;20263;-72
2023/05/22 02:39:58;;;;;;;7.10;3.30;;;19.50;99.90;;;;;;5004633;28;20304;-71
2023/05/22 02:42:24;;;;;;;5.95;3.83;;;19.50;99.90;;;;;;5001699;28;20205;-69
2023/05/22 02:44:50;;;;;;;3.97;3.53;;;19.40;99.90;;;;;;5004096;28;20195;-71
2023/05/22 02:47:15;;;;;;;5.20;3.40;;;19.40;99.90;;;;;;5000131;28;20202;-70
2023/05/22 02:49:41;;;;;;;4.57;3.40;;;19.40;99.90;;;;;;4985740;28;20390;-71
2023/05/22 02:52:07;;;;;;;6.25;3.55;;;19.30;99.90;;;;;;4998047;28;20583;-71
2023/05/22 02:54:32;;;;;;;4.28;3.78;;;19.30;99.90;;;;;;5006224;28;20237;-71
2023/05/22 02:56:58;;;;;;;6.78;3.50;;;19.20;99.90;;;;;;5010291;28;20655;-71
2023/05/22 02:59:23;;;;;;;6.35;3.83;;;19.10;99.90;;;;;;5007791;28;20700;-72
2023/05/22 03:01:50;;;;;;;5.57;3.22;;;19.20;99.90;;;;;;5008577;28;20207;-71
2023/05/22 03:04:15;;;;;;;5.55;3.70;;;19.20;99.90;;;;;;4987773;28;20224;-71
2023/05/22 03:06:44;;;;;;;4.82;3.72;;;19.20;99.90;;;;;;5004969;28;20212;-71
2023/05/22 03:09:10;;;;;;;6.43;3.60;;;19.10;99.90;;;;;;4988778;28;20180;-71
2023/05/22 03:11:36;;;;;;;4.35;3.72;;;19.10;99.90;;;;;;5005334;28;20220;-70
2023/05/22 03:14:01;;;;;;;8.35;3.85;;;19.10;99.90;;;;;;5004548;28;20205;-71
2023/05/22 03:16:27;;;;;;;4.68;3.70;;;19.00;99.90;;;;;;5002924;28;20225;-71
2023/05/22 03:19:12;;;;;;;5.53;3.95;;;18.90;99.90;;;;;;5005989;28;20271;-71
2023/05/22 03:21:38;;;;;;;5.03;3.70;;;18.90;99.90;;;;;;5004412;28;20581;-70
2023/05/22 03:24:04;;;;;;;6.32;3.67;;;19.00;99.90;;;;;;4986909;28;20200;-71
2023/05/22 03:26:30;;;;;;;6.53;4.22;;;18.90;99.90;;;;;;5001028;28;20217;-70
2023/05/22 03:28:56;;;;;;;6.63;4.07;;;18.80;99.90;;;;;;5001438;28;20205;-70
2023/05/22 03:31:26;;;;;;;5.57;4.05;;;18.90;99.90;;;;;;5003024;28;20235;-71
2023/05/22 03:33:52;;;;;;;8.85;4.53;;;18.90;99.90;;;;;;4996315;28;20251;-71
2023/05/22 03:36:20;;;;;;;6.15;3.67;;;19.00;99.90;;;;;;5007924;28;20676;-70
2023/05/22 03:38:46;;;;;;;5.45;3.85;;;19.00;99.90;;;;;;5008917;28;20229;-71
2023/05/22 03:41:11;;;;;;;7.63;4.40;;;19.00;99.90;;;;;;5010046;28;20297;-71
2023/05/22 03:43:37;;;;;;;5.38;3.83;;;19.10;99.90;;;;;;5009553;28;20447;-71
2023/05/22 03:46:02;;;;;;;7.95;4.30;;;19.10;99.90;;;;;;5010875;28;20209;-71
2023/05/22 03:48:28;;;;;;;7.13;3.65;;;19.20;99.90;;;;;;5008095;28;20559;-71
2023/05/22 03:50:54;;;;;;;4.93;3.63;;;19.10;99.90;;;;;;5010238;28;20648;-71
2023/05/22 03:53:20;;;;;;;6.00;3.75;;;19.20;99.90;;;;;;5008373;28;20217;-70
2023/05/22 03:55:45;;;;;;;5.85;3.85;;;19.40;99.90;;;;;;5006895;28;20213;-71
2023/05/22 03:58:11;;;;;;;8.57;4.53;;;19.30;99.90;;;;;;5006210;28;20276;-71
2023/05/22 04:00:37;;;;;;;4.32;3.80;;;19.40;99.90;;;;;;5006264;28;20580;-71
2023/05/22 04:03:03;;;;;;;5.90;4.43;;;19.80;99.90;;;;;;5006679;28;20263;-71
2023/05/22 04:05:30;;;;;;;3.97;3.28;;;20.00;99.90;;;;;;5005998;28;20586;-71
2023/05/22 04:07:56;;;;;;;5.97;4.00;;;20.20;99.90;;;;;;5005112;28;20209;-71
2023/05/22 04:10:22;;;;;;;6.47;4.45;;;20.50;99.90;;;;;;5013390;28;20215;-71
2023/05/22 04:12:48;;;;;;;4.68;3.80;;;21.00;99.90;;;;;;4992102;28;20197;-70
2023/05/22 04:15:14;;;;;;;4.93;4.15;;;20.90;99.90;;;;;;5012142;28;20201;-69
2023/05/22 04:17:40;;;;;;;6.40;3.83;;;21.30;99.90;;;;;;5008281;28;20598;-71
2023/05/22 04:20:07;;;;;;;6.20;4.05;;;21.40;99.90;;;;;;5011173;28;20578;-71
2023/05/22 04:22:33;;;;;;;5.25;4.40;;;21.50;99.90;;;;;;5011352;28;20214;-71
2023/05/22 04:24:59;;;;;;;7.63;4.70;;;21.60;99.90;;;;;;5011829;28;20320;-71
2023/05/22 04:27:25;;;;;;;5.78;4.03;;;21.80;99.90;;;;;;5007467;28;20559;-71
2023/05/22 04:29:51;;;;;;;7.57;4.20;;;22.00;99.90;;;;;;4996194;28;20706;-71
2023/05/22 04:32:20;;;;;;;7.85;3.70;;;22.30;99.90;;;;;;5006061;28;20267;-69
2023/05/22 04:34:48;;;;;;;4.72;3.42;;;22.40;99.90;;;;;;5003449;28;20206;-71
2023/05/22 04:37:17;;;;;;;6.85;3.85;;;22.40;99.90;;;;;;5004316;28;20209;-71
2023/05/22 04:39:44;;;;;;;6.78;4.15;;;22.80;99.90;;;;;;5003677;28;20235;-71
2023/05/22 04:42:13;;;;;;;6.97;4.22;;;22.80;99.90;;;;;;5002973;28;20271;-71
2023/05/22 04:44:40;;;;;;;8.05;4.30;;;22.60;99.90;;;;;;5002176;28;20221;-71
2023/05/22 04:47:10;;;;;;;7.90;3.58;;;22.80;99.90;;;;;;5003548;28;20862;-71
2023/05/22 04:49:36;;;;;;;4.47;4.05;;;22.90;99.90;;;;;;4991891;28;20202;-70
2023/05/22 04:52:03;;;;;;;6.63;4.18;;;22.50;99.90;;;;;;5002040;28;20592;-71
2023/05/22 04:54:29;;;;;;;7.03;4.45;;;22.10;99.90;;;;;;5009800;28;20204;-71
2023/05/22 04:56:54;;;;;;;7.68;4.65;;;21.80;99.90;;;;;;5003224;28;20182;-71
2023/05/22 04:59:22;;;;;;;6.53;4.55;;;21.50;99.90;;;;;;5010082;28;20287;-71
2023/05/22 05:01:49;;;;;;;6.03;4.22;;;21.30;99.90;;;;;;5017411;28;20680;-71
2023/05/22 05:04:16;;;;;;;7.25;5.13;;;21.40;99.90;;;;;;5008163;28;20227;-70
2023/05/22 05:06:42;;;;;;;8.45;4.65;;;21.40;99.90;;;;;;4990555;28;20219;-70
2023/05/22 05:09:08;;;;;;;7.47;5.60;;;21.30;99.90;;;;;;5008962;28;20181;-70
2023/05/22 05:11:34;;;;;;;5.82;4.13;;;21.10;99.90;;;;;;5002660;28;20296;-70
2023/05/22 05:14:00;;;;;;;7.68;4.97;;;21.10;99.90;;;;;;5003559;28;20595;-71
2023/05/22 05:16:25;;;;;;;5.93;4.82;;;21.20;99.90;;;;;;5002969;28;20297;-70
2023/05/22 05:18:52;;;;;;;8.18;4.45;;;21.40;99.90;;;;;;4986787;28;20679;-71
2023/05/22 05:21:20;;;;;;;8.50;4.90;;;21.40;99.90;;;;;;5001420;28;20182;-70
2023/05/22 05:23:46;;;;;;;10.70;4.90;;;21.20;99.90;;;;;;5005832;28;20204;-71
2023/05/22 05:26:11;;;;;;;5.40;4.20;;;21.30;99.90;;;;;;5001785;28;20217;-70
2023/05/22 05:28:37;;;;;;;7.45;4.47;;;21.10;99.90;;;;;;5002630;28;20756;-70
2023/05/22 05:31:03;;;;;;;7.05;4.55;;;20.80;99.90;;;;;;5008213;28;20204;-71
2023/05/22 05:33:29;;;;;;;8.18;4.00;;;20.90;99.90;;;;;;5019549;28;20595;-71
2023/05/22 05:35:55;;;;;;;6.07;4.05;;;20.70;99.90;;;;;;5021105;28;20204;-71
2023/05/22 05:38:21;;;;;;;5.85;4.38;;;20.90;99.90;;;;;;5016518;28;20213;-70
2023/05/22 05:40:47;;;;;;;8.32;4.30;;;21.20;99.90;;;;;;4998662;28;20213;-71
2023/05/22 05:43:14;;;;;;;7.55;4.32;;;21.60;99.90;;;;;;5001482;28;20219;-71
2023/05/22 05:45:40;;;;;;;8.75;4.85;;;21.80;99.90;;;;;;5002698;28;20221;-71
2023/05/22 05:48:06;;;;;;;9.85;4.55;;;21.80;99.90;;;;;;5004390;28;20260;-71
2023/05/22 05:50:32;;;;;;;8.00;4.10;;;21.80;99.90;;;;;;5000286;28;20324;-71
2023/05/22 05:52:58;;;;;;;8.73;4.47;;;21.50;99.90;;;;;;5002936;28;20323;-71
2023/05/22 05:55:23;;;;;;;8.15;4.97;;;21.50;99.90;;;;;;5008100;28;20224;-71
2023/05/22 05:57:49;;;;;;;6.15;5.00;;;21.60;99.90;;;;;;5006174;28;20587;-71
2023/05/22 06:00:15;;;;;;;6.50;4.43;;;21.80;99.90;;;;;;5003975;28;20790;-71
2023/05/22 06:02:41;;;;;;;12.93;4.68;;;21.90;99.90;;;;;;5003996;28;20581;-72
2023/05/22 06:05:07;;;;;;;8.05;4.50;;;22.10;99.90;;;;;;5007602;28;20218;-71
2023/05/22 06:07:36;;;;;;;6.47;4.80;;;22.10;99.90;;;;;;5001319;28;20229;-72
2023/05/22 06:10:03;;;;;;;7.68;5.20;;;23.00;99.90;;;;;;5002739;28;20215;-71
2023/05/22 06:12:29;;;;;;;8.13;4.80;;;24.00;99.90;;;;;;5004443;28;20189;-71
2023/05/22 06:14:55;;;;;;;8.40;4.78;;;23.60;99.90;;;;;;4993643;28;20204;-71
2023/05/22 06:17:21;;;;;;;9.05;5.05;;;23.10;99.90;;;;;;5005965;28;20209;-70
2023/05/22 06:19:47;;;;;;;8.15;4.80;;;23.00;99.90;;;;;;5003258;28;20216;-71
2023/05/22 06:22:13;;;;;;;5.28;4.30;;;23.10;99.90;;;;;;5002600;28;20209;-69
2023/05/22 06:24:38;;;;;;;8.55;4.15;;;22.90;99.90;;;;;;5004481;28;20240;-71
2023/05/22 06:27:04;;;;;;;14.32;11.52;;;23.40;99.90;;;;;;5006171;28;20827;-71
2023/05/22 06:29:30;;;;;;;14.70;11.35;;;24.40;99.90;;;;;;5003348;28;20700;-71
2023/05/22 06:31:55;;;;;;;12.75;6.50;;;24.20;99.90;;;;;;5008408;28;20212;-72
2023/05/22 06:34:21;;;;;;;10.18;6.32;;;23.90;99.90;;;;;;5003589;28;20211;-71
2023/05/22 06:36:49;;;;;;;8.43;5.78;;;23.80;99.90;;;;;;5004707;28;20200;-69
2023/05/22 06:39:16;;;;;;;9.65;4.90;;;24.00;99.90;;;;;;5002476;28;20191;-71
2023/05/22 06:41:41;;;;;;;8.15;4.65;;;24.20;99.90;;;;;;5004785;28;20185;-71
2023/05/22 06:44:07;;;;;;;9.32;4.65;;;24.40;99.90;;;;;;5004516;28;20216;-71
2023/05/22 06:46:32;;;;;;;7.45;5.13;;;23.70;99.90;;;;;;4993095;28;20760;-72
2023/05/22 06:48:58;;;;;;;10.35;5.05;;;24.00;99.90;;;;;;5003447;28;20704;-72
2023/05/22 06:51:24;;;;;;;6.85;5.30;;;24.40;99.90;;;;;;4999460;28;20204;-71
2023/05/22 06:53:50;;;;;;;6.90;4.40;;;24.20;99.90;;;;;;5002512;28;20181;-72
2023/05/22 06:56:16;;;;;;;9.55;4.97;;;24.40;99.90;;;;;;5006327;28;20267;-72
2023/05/22 06:58:42;;;;;;;7.50;4.38;;;24.20;99.90;;;;;;4983090;28;20478;-71
2023/05/22 07:01:07;;;;;;;11.32;4.82;;;24.50;99.90;;;;;;4991550;28;20209;-72
2023/05/22 07:03:33;;;;;;;7.20;4.63;;;24.90;99.90;;;;;;5004243;28;20728;-71
2023/05/22 07:08:33;;;;;;;10.25;5.88;;;24.60;99.90;;;;;;5049034;28;20223;-78
2023/05/22 07:11:00;;;;;;;8.05;5.25;;;24.80;99.90;;;;;;5044744;28;20222;-76
2023/05/22 07:13:27;;;;;;;8.80;5.55;;;25.00;99.90;;;;;;5043537;28;20212;-75
2023/05/22 07:15:53;;;;;;;9.15;5.35;;;24.80;99.90;;;;;;5045304;28;20686;-76
2023/05/22 07:18:18;;;;;;;10.65;5.50;;;25.20;99.90;;;;;;5043090;28;20240;-76
2023/05/22 07:20:44;;;;;;;8.10;4.85;;;25.40;99.90;;;;;;5044592;28;20172;-76
2023/05/22 07:23:10;;;;;;;9.10;5.15;;;25.80;99.90;;;;;;5042679;28;20303;-76
2023/05/22 07:25:36;;;;;;;9.40;4.90;;;25.90;99.90;;;;;;5044702;28;20785;-75
2023/05/22 07:28:07;;;;;;;6.40;4.97;;;25.70;99.90;;;;;;5039816;28;20710;-76
2023/05/22 07:30:34;;;;;;;7.45;4.82;;;25.70;99.90;;;;;;5040771;28;20211;-76
2023/05/22 07:33:00;;;;;;;13.38;5.80;;;25.40;99.90;;;;;;5042538;28;20182;-75
2023/05/22 07:35:25;;;;;;;7.97;5.50;;;25.40;99.90;;;;;;5041637;28;20203;-75
2023/05/22 07:37:51;;;;;;;7.25;4.65;;;25.50;99.90;;;;;;5049771;28;20268;-76
2023/05/22 07:40:17;;;;;;;11.40;5.22;;;25.70;99.90;;;;;;5052846;28;20265;-76
2023/05/22 07:42:42;;;;;;;6.75;5.20;;;25.90;99.90;;;;;;5047603;28;20649;-76
2023/05/22 07:45:09;;;;;;;8.10;5.20;;;25.90;99.90;;;;;;5032885;28;20198;-76
2023/05/22 07:47:34;;;;;;;6.53;5.03;;;25.90;99.90;;;;;;5056108;28;20216;-75
2023/05/22 07:50:03;;;;;;;10.52;4.75;;;26.50;99.90;;;;;;5055560;28;20214;-75
2023/05/22 07:52:30;;;;;;;8.52;4.60;;;27.10;99.90;;;;;;5051873;28;20204;-75
2023/05/22 07:54:56;;;;;;;6.30;4.65;;;26.90;99.90;;;;;;5053242;28;20699;-75
2023/05/22 07:57:21;;;;;;;6.25;4.50;;;27.30;99.90;;;;;;5046382;28;20291;-73
2023/05/22 07:59:47;;;;;;;8.95;4.45;;;26.80;99.90;;;;;;5048181;28;20192;-75
2023/05/22 08:02:13;;;;;;;8.57;4.80;;;26.90;99.90;;;;;;5044019;28;20299;-75
2023/05/22 08:04:39;;;;;;;6.80;4.68;;;26.20;99.90;;;;;;5041587;28;20266;-75
2023/05/22 08:07:05;;;;;;;10.02;5.13;;;26.00;99.90;;;;;;5034253;28;20220;-76
2023/05/22 08:09:31;;;;;;;7.50;4.38;;;26.20;99.90;;;;;;5042325;28;20191;-75
2023/05/22 08:11:57;;;;;;;9.82;4.82;;;26.70;99.90;;;;;;5040580;28;20183;-75
2023/05/22 08:14:22;;;;;;;6.88;4.60;;;26.40;99.90;;;;;;5039265;28;20219;-74
2023/05/22 08:16:48;;;;;;;4.72;4.22;;;26.60;99.90;;;;;;5031482;28;20204;-76
2023/05/22 08:19:13;;;;;;;9.15;4.80;;;27.00;99.90;;;;;;5045233;28;20239;-77
2023/05/22 08:21:39;;;;;;;5.82;4.68;;;27.00;99.90;;;;;;5047397;28;20710;-76
2023/05/22 08:24:06;;;;;;;9.35;4.70;;;26.30;99.90;;;;;;5047547;28;20212;-76
2023/05/22 08:26:32;;;;;;;8.65;4.07;;;26.40;99.90;;;;;;5047228;28;20261;-76
2023/05/22 08:28:58;;;;;;;7.97;4.30;;;26.00;99.90;;;;;;5032300;28;20235;-76
2023/05/22 08:31:24;;;;;;;5.57;4.53;;;25.70;99.90;;;;;;5049840;28;20238;-75
2023/05/22 08:33:50;;;;;;;7.95;4.07;;;25.20;99.90;;;;;;5048500;28;20227;-75
2023/05/22 08:36:16;;;;;;;9.85;5.88;;;25.30;99.90;;;;;;5031117;28;20184;-75
2023/05/22 08:38:41;;;;;;;6.70;4.35;;;25.00;99.90;;;;;;5031915;28;20172;-76
2023/05/22 08:41:08;;;;;;;8.18;5.43;;;24.60;99.90;;;;;;5044264;28;20200;-76
2023/05/22 08:43:34;;;;;;;11.30;5.32;;;24.70;99.90;;;;;;5044535;28;20212;-76
2023/05/22 08:46:03;;;;;;;7.15;5.10;;;25.10;99.90;;;;;;5045661;28;20200;-76
2023/05/22 08:48:30;;;;;;;10.65;4.60;;;25.30;99.90;;;;;;5042553;28;20176;-75
2023/05/22 08:51:03;;;;;;;6.03;3.67;;;25.30;99.90;;;;;;5028241;28;20191;-76
2023/05/22 08:53:34;;;;;;;6.88;4.22;;;25.40;99.90;;;;;;5041718;28;20216;-75
2023/05/22 08:56:02;;;;;;;7.80;4.40;;;25.80;99.90;;;;;;5044715;28;20211;-76
2023/05/22 08:58:28;;;;;;;7.82;4.35;;;25.40;99.90;;;;;;5036564;28;20211;-76
2023/05/22 09:00:54;;;;;;;10.50;5.78;;;25.50;99.90;;;;;;5051651;28;20785;-76
2023/05/22 09:03:21;;;;;;;6.75;4.53;;;25.40;99.90;;;;;;5050441;28;20245;-76
2023/05/22 09:05:48;;;;;;;6.28;4.07;;;25.40;99.90;;;;;;5040386;28;20188;-76
2023/05/22 09:08:14;;;;;;;5.35;3.72;;;25.40;99.90;;;;;;5050066;28;20243;-76
2023/05/22 09:10:40;;;;;;;8.88;4.55;;;25.70;99.90;;;;;;5030423;28;20216;-75
2023/05/22 09:13:10;;;;;;;6.10;4.45;;;25.80;99.90;;;;;;5026752;28;20254;-76
2023/05/22 09:15:36;;;;;;;8.25;4.18;;;25.80;99.90;;;;;;5049771;28;20275;-75
2023/05/22 09:18:03;;;;;;;6.03;4.10;;;25.90;99.90;;;;;;5030627;28;20234;-76
2023/05/22 09:20:33;;;;;;;6.03;3.47;;;25.90;99.90;;;;;;5032568;28;20204;-76
2023/05/22 09:22:58;;;;;;;7.45;4.15;;;25.90;99.90;;;;;;5031192;28;20716;-76
2023/05/22 09:25:25;;;;;;;6.47;4.38;;;26.10;99.90;;;;;;5042994;28;20212;-75
2023/05/22 09:27:51;;;;;;;8.88;5.95;;;25.90;99.90;;;;;;5044629;28;20265;-76
2023/05/22 09:30:18;;;;;;;6.85;3.92;;;25.70;99.90;;;;;;5042534;28;20272;-76
2023/05/22 09:32:45;;;;;;;8.88;3.88;;;25.60;99.90;;;;;;5033226;28;20263;-76
2023/05/22 09:35:12;;;;;;;10.05;4.03;;;25.40;99.90;;;;;;5041643;28;20207;-76
2023/05/22 09:37:39;;;;;;;5.95;4.10;;;25.30;99.90;;;;;;5044769;28;20218;-76
2023/05/22 09:40:10;;;;;;;6.95;4.28;;;25.30;99.90;;;;;;5047811;28;20732;-75
2023/05/22 09:42:36;;;;;;;7.20;3.97;;;25.20;99.90;;;;;;5050302;28;20226;-76
2023/05/22 09:45:06;;;;;;;6.28;4.25;;;25.10;99.90;;;;;;5050731;28;20654;-76
2023/05/22 09:47:33;;;;;;;6.05;4.25;;;25.10;99.90;;;;;;5049295;28;20212;-76
2023/05/22 09:50:02;;;;;;;5.45;4.40;;;25.10;99.90;;;;;;5046756;28;20212;-76
2023/05/22 09:52:31;;;;;;;7.35;4.47;;;25.10;99.90;;;;;;5046467;28;20227;-75
2023/05/22 09:54:59;;;;;;;4.82;3.72;;;25.20;99.90;;;;;;5029816;28;20211;-76
2023/05/22 09:57:26;;;;;;;5.97;3.80;;;25.30;99.90;;;;;;5045270;28;20542;-76
2023/05/22 09:59:56;;;;;;;6.78;3.80;;;25.30;99.90;;;;;;5047637;28;20178;-76
2023/05/22 10:02:26;;;;;;;7.67;4.30;;;25.30;99.90;;;;;;5045106;28;20218;-77
2023/05/22 10:04:53;;;;;;;4.85;3.55;;;25.50;99.90;;;;;;5043664;28;20200;-76
2023/05/22 10:07:25;;;;;;;6.30;3.70;;;25.60;99.90;;;;;;5042325;28;20215;-76
2023/05/22 10:10:00;;;;;;;5.25;3.55;;;25.40;99.90;;;;;;5026653;28;20207;-77
2023/05/22 10:12:30;;;;;;;8.13;3.92;;;25.40;99.90;;;;;;5043757;28;20176;-76
2023/05/22 10:14:57;;;;;;;4.15;3.25;;;25.50;99.90;;;;;;5044982;28;20179;-75
2023/05/22 10:17:24;;;;;;;4.70;3.72;;;25.50;99.90;;;;;;5039142;28;20238;-73
2023/05/22 10:19:52;;;;;;;8.82;3.90;;;25.70;99.90;;;;;;5046898;28;20203;-76
2023/05/22 10:22:21;;;;;;;6.45;3.83;;;25.70;99.90;;;;;;5040645;28;20610;-76
2023/05/22 10:24:51;;;;;;;8.20;3.75;;;25.70;99.90;;;;;;5025120;28;20854;-76
2023/05/22 10:27:17;;;;;;;7.35;4.00;;;25.60;99.90;;;;;;5046818;28;20200;-76
2023/05/22 10:30:19;;;;;;;6.30;4.47;;;25.70;99.90;;;;;;5047916;28;20206;-76
2023/05/22 10:33:07;;;;;;;14.63;4.57;;;25.70;99.90;;;;;;5016263;28;20272;-76
2023/05/22 10:35:36;;;;;;;5.78;3.63;;;25.70;99.90;;;;;;5045215;28;20285;-76
2023/05/22 10:38:12;;;;;;;6.97;3.38;;;25.70;99.90;;;;;;5028217;28;20212;-76
2023/05/22 10:40:40;;;;;;;5.63;3.85;;;26.00;99.90;;;;;;5044448;28;20777;-76
2023/05/22 10:43:06;;;;;;;6.60;4.80;;;25.80;99.90;;;;;;5043941;28;20772;-76
2023/05/22 10:45:32;;;;;;;5.75;3.65;;;25.60;99.90;;;;;;5041274;28;20226;-76
2023/05/22 10:48:05;;;;;;;5.55;4.05;;;25.50;99.90;;;;;;5048158;28;20760;-76
2023/05/22 10:50:31;;;;;;;7.82;3.25;;;25.50;99.90;;;;;;5039890;28;20208;-76
2023/05/22 10:53:22;;;;;;;4.72;3.40;;;25.60;99.90;;;;;;5025330;28;20214;-76
2023/05/22 10:55:49;;;;;;;3.70;3.17;;;25.70;99.90;;;;;;5042695;28;20219;-76
2023/05/22 10:58:16;;;;;;;6.53;3.40;;;25.90;99.90;;;;;;5021285;28;20227;-76
2023/05/22 11:00:42;;;;;;;8.23;4.00;;;26.00;99.90;;;;;;5049175;28;20303;-76
2023/05/22 11:03:08;;;;;;;5.05;3.38;;;26.10;99.90;;;;;;5031743;28;20282;-76
2023/05/22 11:05:35;;;;;;;3.85;3.00;;;26.30;99.90;;;;;;5048922;28;20204;-76
2023/05/22 11:08:25;;;;;;;9.00;3.58;;;26.40;99.90;;;;;;5030889;28;20219;-76
2023/05/22 11:10:57;;;;;;;4.93;3.58;;;26.30;99.90;;;;;;5032852;28;20741;-76
2023/05/22 11:13:26;;;;;;;6.03;3.70;;;26.10;99.90;;;;;;5046743;28;20211;-76
2023/05/22 11:15:57;;;;;;;5.75;3.53;;;25.80;99.90;;;;;;5047406;28;20646;-76
2023/05/22 11:18:23;;;;;;;8.02;4.30;;;25.70;99.90;;;;;;5039066;28;20203;-76
2023/05/22 11:20:49;;;;;;;7.72;3.20;;;25.80;99.90;;;;;;5040585;28;20179;-75
2023/05/22 11:23:18;;;;;;;7.18;3.10;;;25.70;99.90;;;;;;5037945;28;20735;-77
2023/05/22 11:25:44;;;;;;;5.75;3.63;;;25.90;99.90;;;;;;5045073;28;20215;-76
2023/05/22 11:28:11;;;;;;;5.00;3.67;;;25.90;99.90;;;;;;5044759;28;20213;-76
2023/05/22 11:30:37;;;;;;;4.72;3.55;;;25.90;99.90;;;;;;5044502;28;20216;-76
2023/05/22 11:33:05;;;;;;;4.15;3.50;;;25.90;99.90;;;;;;5029204;28;20192;-75
2023/05/22 11:35:30;;;;;;;5.30;3.65;;;25.80;99.90;;;;;;5038747;28;20300;-76
2023/05/22 11:37:57;;;;;;;5.18;4.30;;;25.70;99.90;;;;;;5028911;28;20415;-76
2023/05/22 11:40:28;;;;;;;6.45;3.50;;;25.90;99.90;;;;;;5046065;28;20211;-76
2023/05/22 11:42:53;;;;;;;4.38;3.35;;;25.90;99.90;;;;;;5042341;28;20490;-76
2023/05/22 11:45:20;;;;;;;4.68;3.53;;;26.00;99.90;;;;;;5048578;28;20657;-76
2023/05/22 11:47:45;;;;;;;4.25;2.65;;;26.00;99.90;;;;;;5049046;28;20610;-77
2023/05/22 11:50:11;;;;;;;6.68;2.97;;;26.00;99.90;;;;;;5050267;28;20314;-75
2023/05/22 11:52:39;;;;;;;7.45;3.80;;;26.00;99.90;;;;;;5046134;28;20219;-78
2023/05/22 11:55:06;;;;;;;7.43;4.13;;;25.90;99.90;;;;;;5046877;28;20227;-77
2023/05/22 11:57:33;;;;;;;5.00;2.85;;;26.00;99.90;;;;;;5044614;28;20215;-75
2023/05/22 11:59:58;;;;;;;6.75;3.35;;;26.10;99.90;;;;;;5028658;28;20247;-76
2023/05/22 12:02:24;;;;;;;7.13;3.10;;;25.90;99.90;;;;;;5047487;28;20294;-74
2023/05/22 12:04:54;;;;;;;5.45;3.25;;;25.80;99.90;;;;;;5049015;28;20200;-76
2023/05/22 12:07:21;;;;;;;7.60;3.63;;;25.90;99.90;;;;;;5046286;28;20226;-76
2023/05/22 12:09:47;;;;;;;4.40;3.00;;;25.90;99.90;;;;;;5048332;28;20230;-76
2023/05/22 12:12:15;;;;;;;4.53;2.90;;;25.60;99.90;;;;;;5044172;28;20619;-76
2023/05/22 12:14:44;;;;;;;7.55;3.10;;;25.70;99.90;;;;;;5048696;28;20179;-77
2023/05/22 12:17:14;;;;;;;6.90;3.00;;;25.70;99.90;;;;;;5045355;28;20298;-77
2023/05/22 12:19:40;;;;;;;4.88;3.05;;;25.70;99.90;;;;;;5047932;28;20311;-76
2023/05/22 12:22:07;;;;;;;5.38;3.58;;;25.80;99.90;;;;;;5048857;28;20215;-76
2023/05/22 12:24:47;;;;;;;3.65;2.83;;;25.90;99.90;;;;;;5038030;28;20215;-77
2023/05/22 12:27:13;;;;;;;5.20;3.22;;;25.70;99.90;;;;;;5053292;28;20221;-77
2023/05/22 12:29:39;;;;;;;5.38;3.38;;;25.70;99.90;;;;;;5052127;28;20222;-76
2023/05/22 12:32:09;;;;;;;4.65;3.42;;;25.60;99.90;;;;;;5051590;28;20354;-76
2023/05/22 12:34:43;;;;;;;21.77;3.00;;;25.70;99.90;;;;;;5048514;28;20208;-75
2023/05/22 12:37:23;;;;;;;4.57;2.95;;;25.70;99.90;;;;;;5029455;28;20380;-77
2023/05/22 12:39:56;;;;;;;8.48;3.80;;;25.70;99.90;;;;;;5049973;28;20290;-78
2023/05/22 12:42:22;;;;;;;4.82;2.78;;;25.70;99.90;;;;;;5051686;28;20187;-77
2023/05/22 12:44:51;;;;;;;4.90;2.97;;;25.50;99.90;;;;;;5048308;28;20234;-77
2023/05/22 12:47:17;;;;;;;5.57;3.03;;;25.60;99.90;;;;;;5048734;28;20211;-77
2023/05/22 12:49:43;;;;;;;5.47;3.30;;;25.50;99.90;;;;;;5045016;28;20216;-77